sensor_id;sensor_type;location;lat;lon;timestamp;pressure;altitude;pressure_sealevel;temperature;humidity
76519;BME280;67029;51.054;13.798;2023-11-19T00:02:22;100439.08;;;7.83;60.68
76519;BME280;67029;51.054;13.798;2023-11-19T00:04:52;100430.42;;;7.56;61.76
76519;BME280;67029;51.054;13.798;2023-11-19T00:07:22;100421.08;;;7.37;62.90
76519;BME280;67029;51.054;13.798;2023-11-19T00:09:52;100413.09;;;7.41;62.49
76519;BME280;67029;51.054;13.798;2023-11-19T00:12:22;100383.09;;;7.39;62.51
76519;BME280;67029;51.054;13.798;2023-11-19T00:14:52;100371.06;;;7.56;61.73
76519;BME280;67029;51.054;13.798;2023-11-19T00:17:22;100370.21;;;7.50;61.85
76519;BME280;67029;51.054;13.798;2023-11-19T00:19:52;100373.30;;;7.22;63.04
76519;BME280;67029;51.054;13.798;2023-11-19T00:22:22;100367.94;;;7.21;62.54
76519;BME280;67029;51.054;13.798;2023-11-19T00:24:52;100373.91;;;7.21;62.75
76519;BME280;67029;51.054;13.798;2023-11-19T00:27:22;100371.45;;;7.05;62.98
76519;BME280;67029;51.054;13.798;2023-11-19T00:29:52;100346.33;;;6.91;64.09
76519;BME280;67029;51.054;13.798;2023-11-19T00:32:23;100336.39;;;6.95;63.43
76519;BME280;67029;51.054;13.798;2023-11-19T00:34:52;100347.92;;;7.09;62.89
76519;BME280;67029;51.054;13.798;2023-11-19T00:37:22;100340.95;;;7.20;62.63
76519;BME280;67029;51.054;13.798;2023-11-19T00:39:53;100337.36;;;7.29;62.19
76519;BME280;67029;51.054;13.798;2023-11-19T00:42:23;100336.41;;;7.42;61.91
76519;BME280;67029;51.054;13.798;2023-11-19T00:44:53;100337.25;;;7.32;61.98
76519;BME280;67029;51.054;13.798;2023-11-19T00:47:23;100333.31;;;7.45;61.63
76519;BME280;67029;51.054;13.798;2023-11-19T00:49:53;100328.70;;;7.39;61.61
76519;BME280;67029;51.054;13.798;2023-11-19T00:52:23;100322.95;;;7.49;61.42
76519;BME280;67029;51.054;13.798;2023-11-19T00:54:53;100312.00;;;7.63;61.05
76519;BME280;67029;51.054;13.798;2023-11-19T00:57:23;100317.38;;;7.76;60.97
76519;BME280;67029;51.054;13.798;2023-11-19T00:59:53;100307.60;;;7.82;60.54
76519;BME280;67029;51.054;13.798;2023-11-19T01:02:23;100298.23;;;7.86;60.35
76519;BME280;67029;51.054;13.798;2023-11-19T01:04:53;100291.59;;;7.84;60.39
76519;BME280;67029;51.054;13.798;2023-11-19T01:07:23;100289.75;;;7.85;60.38
76519;BME280;67029;51.054;13.798;2023-11-19T01:09:53;100278.72;;;7.86;60.31
76519;BME280;67029;51.054;13.798;2023-11-19T01:12:23;100266.55;;;7.78;60.55
76519;BME280;67029;51.054;13.798;2023-11-19T01:14:53;100261.94;;;7.68;60.89
76519;BME280;67029;51.054;13.798;2023-11-19T01:17:23;100240.36;;;7.57;61.27
76519;BME280;67029;51.054;13.798;2023-11-19T01:19:53;100235.03;;;7.40;62.15
76519;BME280;67029;51.054;13.798;2023-11-19T01:22:23;100239.51;;;7.31;62.04
76519;BME280;67029;51.054;13.798;2023-11-19T01:24:53;100236.55;;;7.41;61.84
76519;BME280;67029;51.054;13.798;2023-11-19T01:27:23;100242.83;;;7.55;61.44
76519;BME280;67029;51.054;13.798;2023-11-19T01:29:53;100235.83;;;7.58;61.39
76519;BME280;67029;51.054;13.798;2023-11-19T01:32:23;100230.12;;;7.76;61.16
76519;BME280;67029;51.054;13.798;2023-11-19T01:34:53;100219.72;;;7.74;60.96
76519;BME280;67029;51.054;13.798;2023-11-19T01:37:23;100213.16;;;7.73;60.86
76519;BME280;67029;51.054;13.798;2023-11-19T01:39:53;100213.25;;;7.74;60.78
76519;BME280;67029;51.054;13.798;2023-11-19T01:42:23;100206.14;;;7.85;60.63
76519;BME280;67029;51.054;13.798;2023-11-19T01:44:59;100198.02;;;7.92;60.47
76519;BME280;67029;51.054;13.798;2023-11-19T01:47:23;100188.67;;;7.77;60.62
76519;BME280;67029;51.054;13.798;2023-11-19T01:49:54;100188.72;;;7.61;61.26
76519;BME280;67029;51.054;13.798;2023-11-19T01:52:25;100179.64;;;7.63;61.57
76519;BME280;67029;51.054;13.798;2023-11-19T01:54:55;100172.30;;;7.71;61.12
76519;BME280;67029;51.054;13.798;2023-11-19T01:57:25;100170.18;;;7.76;60.90
76519;BME280;67029;51.054;13.798;2023-11-19T01:59:55;100162.41;;;7.78;60.85
76519;BME280;67029;51.054;13.798;2023-11-19T02:02:25;100152.25;;;7.74;60.89
76519;BME280;67029;51.054;13.798;2023-11-19T02:04:56;100136.84;;;7.82;60.75
76519;BME280;67029;51.054;13.798;2023-11-19T02:07:26;100127.20;;;7.89;60.67
76519;BME280;67029;51.054;13.798;2023-11-19T02:09:56;100124.72;;;7.96;60.44
76519;BME280;67029;51.054;13.798;2023-11-19T02:12:26;100118.60;;;8.06;60.46
76519;BME280;67029;51.054;13.798;2023-11-19T02:14:57;100121.53;;;8.06;60.23
76519;BME280;67029;51.054;13.798;2023-11-19T02:17:28;100120.59;;;8.07;60.25
76519;BME280;67029;51.054;13.798;2023-11-19T02:19:57;100115.52;;;8.01;60.48
76519;BME280;67029;51.054;13.798;2023-11-19T02:22:27;100106.88;;;7.83;61.13
76519;BME280;67029;51.054;13.798;2023-11-19T02:25:01;100091.22;;;7.68;61.95
76519;BME280;67029;51.054;13.798;2023-11-19T02:27:53;100075.17;;;7.67;61.94
76519;BME280;67029;51.054;13.798;2023-11-19T02:29:58;100070.34;;;7.73;61.84
76519;BME280;67029;51.054;13.798;2023-11-19T02:32:28;100060.05;;;7.68;62.12
76519;BME280;67029;51.054;13.798;2023-11-19T02:34:58;100067.30;;;7.78;61.85
76519;BME280;67029;51.054;13.798;2023-11-19T02:37:28;100063.12;;;7.83;61.77
76519;BME280;67029;51.054;13.798;2023-11-19T02:39:58;100047.25;;;7.65;62.55
76519;BME280;67029;51.054;13.798;2023-11-19T02:42:28;100045.86;;;7.64;62.55
76519;BME280;67029;51.054;13.798;2023-11-19T02:44:58;100042.30;;;7.68;62.42
76519;BME280;67029;51.054;13.798;2023-11-19T02:47:28;100038.95;;;7.78;62.13
76519;BME280;67029;51.054;13.798;2023-11-19T02:49:58;100024.84;;;7.76;62.12
76519;BME280;67029;51.054;13.798;2023-11-19T02:52:28;100019.39;;;7.92;61.86
76519;BME280;67029;51.054;13.798;2023-11-19T02:54:58;100019.76;;;8.00;61.42
76519;BME280;67029;51.054;13.798;2023-11-19T02:57:31;100032.47;;;8.02;61.48
76519;BME280;67029;51.054;13.798;2023-11-19T02:59:59;100012.74;;;8.06;61.26
76519;BME280;67029;51.054;13.798;2023-11-19T03:02:29;99998.92;;;8.09;61.20
76519;BME280;67029;51.054;13.798;2023-11-19T03:04:59;99994.73;;;8.15;61.02
76519;BME280;67029;51.054;13.798;2023-11-19T03:07:29;99980.67;;;8.13;60.98
76519;BME280;67029;51.054;13.798;2023-11-19T03:09:59;99975.98;;;7.94;61.52
76519;BME280;67029;51.054;13.798;2023-11-19T03:12:29;99971.05;;;8.02;61.37
76519;BME280;67029;51.054;13.798;2023-11-19T03:14:59;99968.98;;;8.07;61.26
76519;BME280;67029;51.054;13.798;2023-11-19T03:17:29;99965.14;;;8.02;61.23
76519;BME280;67029;51.054;13.798;2023-11-19T03:19:59;99967.00;;;7.93;61.60
76519;BME280;67029;51.054;13.798;2023-11-19T03:22:29;99962.19;;;8.04;61.35
76519;BME280;67029;51.054;13.798;2023-11-19T03:24:59;99959.50;;;8.22;60.88
76519;BME280;67029;51.054;13.798;2023-11-19T03:27:29;99949.53;;;8.31;60.48
76519;BME280;67029;51.054;13.798;2023-11-19T03:29:59;99934.42;;;8.27;60.56
76519;BME280;67029;51.054;13.798;2023-11-19T03:32:29;99934.66;;;8.29;60.49
76519;BME280;67029;51.054;13.798;2023-11-19T03:34:59;99941.41;;;8.20;60.69
76519;BME280;67029;51.054;13.798;2023-11-19T03:37:29;99942.98;;;8.32;60.39
76519;BME280;67029;51.054;13.798;2023-11-19T03:39:59;99932.47;;;8.37;60.11
76519;BME280;67029;51.054;13.798;2023-11-19T03:42:29;99926.29;;;8.18;60.79
76519;BME280;67029;51.054;13.798;2023-11-19T03:44:59;99925.48;;;8.21;60.72
76519;BME280;67029;51.054;13.798;2023-11-19T03:47:29;99910.27;;;8.20;60.71
76519;BME280;67029;51.054;13.798;2023-11-19T03:49:59;99911.55;;;8.20;60.88
76519;BME280;67029;51.054;13.798;2023-11-19T03:52:29;99905.33;;;8.10;61.13
76519;BME280;67029;51.054;13.798;2023-11-19T03:54:59;99901.17;;;8.20;60.92
76519;BME280;67029;51.054;13.798;2023-11-19T03:57:30;99890.53;;;8.15;61.23
76519;BME280;67029;51.054;13.798;2023-11-19T03:59:59;99877.79;;;8.33;60.86
76519;BME280;67029;51.054;13.798;2023-11-19T04:02:30;99878.64;;;8.25;61.17
76519;BME280;67029;51.054;13.798;2023-11-19T04:05:00;99876.36;;;8.20;61.13
76519;BME280;67029;51.054;13.798;2023-11-19T04:07:30;99872.30;;;8.21;61.26
76519;BME280;67029;51.054;13.798;2023-11-19T04:10:00;99865.53;;;8.32;61.11
76519;BME280;67029;51.054;13.798;2023-11-19T04:12:30;99875.98;;;8.24;61.40
76519;BME280;67029;51.054;13.798;2023-11-19T04:15:00;99848.39;;;8.14;61.50
76519;BME280;67029;51.054;13.798;2023-11-19T04:17:30;99851.98;;;8.16;61.47
76519;BME280;67029;51.054;13.798;2023-11-19T04:20:00;99850.77;;;8.12;61.57
76519;BME280;67029;51.054;13.798;2023-11-19T04:22:30;99853.28;;;8.28;61.26
76519;BME280;67029;51.054;13.798;2023-11-19T04:25:00;99853.73;;;8.18;61.49
76519;BME280;67029;51.054;13.798;2023-11-19T04:27:30;99857.20;;;8.18;61.59
76519;BME280;67029;51.054;13.798;2023-11-19T04:30:00;99854.52;;;8.08;61.95
76519;BME280;67029;51.054;13.798;2023-11-19T04:32:30;99845.98;;;7.95;62.66
76519;BME280;67029;51.054;13.798;2023-11-19T04:35:00;99835.71;;;7.96;62.88
76519;BME280;67029;51.054;13.798;2023-11-19T04:37:30;99834.18;;;8.05;62.64
76519;BME280;67029;51.054;13.798;2023-11-19T04:40:00;99837.77;;;8.07;62.53
76519;BME280;67029;51.054;13.798;2023-11-19T04:42:30;99835.17;;;8.08;63.42
76519;BME280;67029;51.054;13.798;2023-11-19T04:45:00;99831.81;;;8.00;63.55
76519;BME280;67029;51.054;13.798;2023-11-19T04:47:30;99828.50;;;7.87;64.08
76519;BME280;67029;51.054;13.798;2023-11-19T04:50:00;99829.40;;;7.81;64.99
76519;BME280;67029;51.054;13.798;2023-11-19T04:52:30;99820.78;;;7.84;64.69
76519;BME280;67029;51.054;13.798;2023-11-19T04:55:00;99816.16;;;7.67;65.33
76519;BME280;67029;51.054;13.798;2023-11-19T04:57:30;99809.37;;;7.65;65.24
76519;BME280;67029;51.054;13.798;2023-11-19T05:00:00;99794.00;;;7.57;65.97
76519;BME280;67029;51.054;13.798;2023-11-19T05:02:30;99799.30;;;7.47;66.57
76519;BME280;67029;51.054;13.798;2023-11-19T05:05:01;99800.55;;;7.49;66.34
76519;BME280;67029;51.054;13.798;2023-11-19T05:07:31;99795.41;;;7.67;65.73
76519;BME280;67029;51.054;13.798;2023-11-19T05:10:01;99791.15;;;7.70;65.79
76519;BME280;67029;51.054;13.798;2023-11-19T05:12:31;99794.52;;;7.72;65.67
76519;BME280;67029;51.054;13.798;2023-11-19T05:15:01;99790.14;;;7.72;66.08
76519;BME280;67029;51.054;13.798;2023-11-19T05:17:31;99781.78;;;7.49;67.61
76519;BME280;67029;51.054;13.798;2023-11-19T05:20:01;99789.57;;;7.45;67.06
76519;BME280;67029;51.054;13.798;2023-11-19T05:22:31;99799.98;;;7.53;67.56
76519;BME280;67029;51.054;13.798;2023-11-19T05:25:01;99781.69;;;7.41;67.72
76519;BME280;67029;51.054;13.798;2023-11-19T05:27:31;99775.30;;;7.41;68.16
76519;BME280;67029;51.054;13.798;2023-11-19T05:30:01;99769.06;;;7.54;67.40
76519;BME280;67029;51.054;13.798;2023-11-19T05:32:31;99760.50;;;7.49;67.93
76519;BME280;67029;51.054;13.798;2023-11-19T05:35:02;99749.89;;;7.51;67.88
76519;BME280;67029;51.054;13.798;2023-11-19T05:37:32;99751.81;;;7.54;67.63
76519;BME280;67029;51.054;13.798;2023-11-19T05:40:02;99757.70;;;7.70;67.64
76519;BME280;67029;51.054;13.798;2023-11-19T05:42:32;99749.50;;;7.42;68.32
76519;BME280;67029;51.054;13.798;2023-11-19T05:45:03;99754.19;;;7.27;68.88
76519;BME280;67029;51.054;13.798;2023-11-19T05:47:33;99737.86;;;7.01;70.41
76519;BME280;67029;51.054;13.798;2023-11-19T05:50:03;99747.48;;;6.97;70.36
76519;BME280;67029;51.054;13.798;2023-11-19T05:52:33;99743.16;;;7.10;69.46
76519;BME280;67029;51.054;13.798;2023-11-19T05:55:04;99738.86;;;7.31;68.77
76519;BME280;67029;51.054;13.798;2023-11-19T05:57:34;99748.03;;;7.39;68.54
76519;BME280;67029;51.054;13.798;2023-11-19T06:00:05;99727.62;;;7.35;69.08
76519;BME280;67029;51.054;13.798;2023-11-19T06:02:34;99729.81;;;7.27;68.68
76519;BME280;67029;51.054;13.798;2023-11-19T06:05:05;99734.08;;;7.36;68.20
76519;BME280;67029;51.054;13.798;2023-11-19T06:07:35;99726.59;;;7.54;68.02
76519;BME280;67029;51.054;13.798;2023-11-19T06:10:05;99717.01;;;7.61;67.80
76519;BME280;67029;51.054;13.798;2023-11-19T06:12:35;99704.94;;;7.42;68.85
76519;BME280;67029;51.054;13.798;2023-11-19T06:15:06;99690.33;;;7.24;68.99
76519;BME280;67029;51.054;13.798;2023-11-19T06:17:36;99693.13;;;7.13;69.25
76519;BME280;67029;51.054;13.798;2023-11-19T06:20:07;99691.05;;;7.12;70.01
76519;BME280;67029;51.054;13.798;2023-11-19T06:22:37;99684.36;;;6.99;70.26
76519;BME280;67029;51.054;13.798;2023-11-19T06:25:07;99667.59;;;6.96;70.54
76519;BME280;67029;51.054;13.798;2023-11-19T06:27:37;99673.34;;;7.02;70.06
76519;BME280;67029;51.054;13.798;2023-11-19T06:30:08;99656.29;;;6.76;71.75
76519;BME280;67029;51.054;13.798;2023-11-19T06:32:38;99665.97;;;6.82;71.44
76519;BME280;67029;51.054;13.798;2023-11-19T06:35:08;99654.89;;;7.05;70.65
76519;BME280;67029;51.054;13.798;2023-11-19T06:37:39;99659.38;;;7.29;69.72
76519;BME280;67029;51.054;13.798;2023-11-19T06:40:09;99658.72;;;7.35;69.45
76519;BME280;67029;51.054;13.798;2023-11-19T06:42:39;99665.45;;;7.43;69.05
76519;BME280;67029;51.054;13.798;2023-11-19T06:45:09;99670.55;;;7.57;68.86
76519;BME280;67029;51.054;13.798;2023-11-19T06:47:39;99662.52;;;7.61;68.75
76519;BME280;67029;51.054;13.798;2023-11-19T06:50:09;99663.42;;;7.69;68.71
76519;BME280;67029;51.054;13.798;2023-11-19T06:52:39;99658.59;;;7.79;68.24
76519;BME280;67029;51.054;13.798;2023-11-19T06:55:09;99654.20;;;7.86;67.92
76519;BME280;67029;51.054;13.798;2023-11-19T06:57:39;99663.87;;;7.94;68.27
76519;BME280;67029;51.054;13.798;2023-11-19T07:00:10;99652.06;;;7.89;68.14
76519;BME280;67029;51.054;13.798;2023-11-19T07:02:40;99649.81;;;7.94;68.15
76519;BME280;67029;51.054;13.798;2023-11-19T07:05:10;99648.84;;;7.86;68.41
76519;BME280;67029;51.054;13.798;2023-11-19T07:07:40;99644.47;;;7.99;68.06
76519;BME280;67029;51.054;13.798;2023-11-19T07:10:11;99657.72;;;8.06;67.67
76519;BME280;67029;51.054;13.798;2023-11-19T07:12:40;99649.95;;;7.97;68.42
76519;BME280;67029;51.054;13.798;2023-11-19T07:15:10;99668.61;;;7.78;69.08
76519;BME280;67029;51.054;13.798;2023-11-19T07:17:40;99676.17;;;7.92;68.86
76519;BME280;67029;51.054;13.798;2023-11-19T07:20:11;99662.41;;;7.90;68.90
76519;BME280;67029;51.054;13.798;2023-11-19T07:22:44;99673.70;;;8.02;68.63
76519;BME280;67029;51.054;13.798;2023-11-19T07:25:14;99677.47;;;8.16;68.42
76519;BME280;67029;51.054;13.798;2023-11-19T07:27:42;99661.06;;;8.13;68.47
76519;BME280;67029;51.054;13.798;2023-11-19T07:30:12;99681.22;;;8.10;68.42
76519;BME280;67029;51.054;13.798;2023-11-19T07:32:42;99684.95;;;8.27;68.34
76519;BME280;67029;51.054;13.798;2023-11-19T07:35:12;99677.19;;;8.34;67.87
76519;BME280;67029;51.054;13.798;2023-11-19T07:37:42;99675.95;;;8.33;68.01
76519;BME280;67029;51.054;13.798;2023-11-19T07:40:13;99679.27;;;8.40;67.76
76519;BME280;67029;51.054;13.798;2023-11-19T07:42:43;99677.83;;;8.45;67.97
76519;BME280;67029;51.054;13.798;2023-11-19T07:45:13;99670.25;;;8.30;68.36
76519;BME280;67029;51.054;13.798;2023-11-19T07:47:43;99664.88;;;8.18;69.22
76519;BME280;67029;51.054;13.798;2023-11-19T07:50:14;99679.56;;;8.26;68.95
76519;BME280;67029;51.054;13.798;2023-11-19T07:52:43;99667.54;;;8.36;69.03
76519;BME280;67029;51.054;13.798;2023-11-19T07:55:14;99676.33;;;8.29;69.17
76519;BME280;67029;51.054;13.798;2023-11-19T07:57:44;99668.92;;;8.48;68.80
76519;BME280;67029;51.054;13.798;2023-11-19T08:00:14;99676.48;;;8.55;68.44
76519;BME280;67029;51.054;13.798;2023-11-19T08:02:44;99673.23;;;8.57;68.52
76519;BME280;67029;51.054;13.798;2023-11-19T08:05:15;99696.59;;;8.71;68.05
76519;BME280;67029;51.054;13.798;2023-11-19T08:07:44;99687.50;;;8.77;67.89
76519;BME280;67029;51.054;13.798;2023-11-19T08:10:14;99679.73;;;8.77;68.13
76519;BME280;67029;51.054;13.798;2023-11-19T08:12:44;99690.16;;;8.73;68.33
76519;BME280;67029;51.054;13.798;2023-11-19T08:15:15;99683.26;;;8.83;68.08
76519;BME280;67029;51.054;13.798;2023-11-19T08:17:45;99674.14;;;8.95;67.87
76519;BME280;67029;51.054;13.798;2023-11-19T08:20:15;99655.70;;;9.03;67.68
76519;BME280;67029;51.054;13.798;2023-11-19T08:22:45;99661.12;;;9.01;67.80
76519;BME280;67029;51.054;13.798;2023-11-19T08:25:15;99656.20;;;9.17;67.84
76519;BME280;67029;51.054;13.798;2023-11-19T08:27:45;99659.67;;;9.35;67.53
76519;BME280;67029;51.054;13.798;2023-11-19T08:30:15;99656.88;;;9.53;67.24
76519;BME280;67029;51.054;13.798;2023-11-19T08:32:45;99642.69;;;9.65;66.87
76519;BME280;67029;51.054;13.798;2023-11-19T08:35:15;99642.69;;;9.77;66.75
76519;BME280;67029;51.054;13.798;2023-11-19T08:37:45;99651.53;;;9.94;66.49
76519;BME280;67029;51.054;13.798;2023-11-19T08:40:16;99650.02;;;10.12;66.19
76519;BME280;67029;51.054;13.798;2023-11-19T08:42:46;99642.73;;;10.28;65.97
76519;BME280;67029;51.054;13.798;2023-11-19T08:45:16;99650.72;;;10.39;65.94
76519;BME280;67029;51.054;13.798;2023-11-19T08:47:46;99660.48;;;10.54;65.70
76519;BME280;67029;51.054;13.798;2023-11-19T08:50:15;99650.02;;;10.60;65.41
76519;BME280;67029;51.054;13.798;2023-11-19T08:52:46;99639.45;;;10.65;65.47
76519;BME280;67029;51.054;13.798;2023-11-19T08:55:16;99653.78;;;10.80;65.25
76519;BME280;67029;51.054;13.798;2023-11-19T08:57:46;99652.55;;;10.88;64.98
76519;BME280;67029;51.054;13.798;2023-11-19T09:00:16;99649.06;;;10.99;64.96
76519;BME280;67029;51.054;13.798;2023-11-19T09:02:46;99667.91;;;11.02;64.95
76519;BME280;67029;51.054;13.798;2023-11-19T09:05:16;99664.91;;;11.04;64.78
76519;BME280;67029;51.054;13.798;2023-11-19T09:07:46;99681.83;;;11.10;64.94
76519;BME280;67029;51.054;13.798;2023-11-19T09:10:16;99677.45;;;11.15;64.77
76519;BME280;67029;51.054;13.798;2023-11-19T09:12:46;99672.62;;;11.18;64.69
76519;BME280;67029;51.054;13.798;2023-11-19T09:15:16;99666.23;;;11.11;65.04
76519;BME280;67029;51.054;13.798;2023-11-19T09:17:46;99652.95;;;11.05;65.29
76519;BME280;67029;51.054;13.798;2023-11-19T09:20:16;99667.05;;;11.06;65.46
76519;BME280;67029;51.054;13.798;2023-11-19T09:22:46;99667.53;;;11.10;65.42
76519;BME280;67029;51.054;13.798;2023-11-19T09:25:16;99668.00;;;11.18;65.36
76519;BME280;67029;51.054;13.798;2023-11-19T09:27:46;99659.87;;;11.21;65.27
76519;BME280;67029;51.054;13.798;2023-11-19T09:30:16;99678.70;;;11.26;65.30
76519;BME280;67029;51.054;13.798;2023-11-19T09:32:46;99680.45;;;11.32;65.24
76519;BME280;67029;51.054;13.798;2023-11-19T09:35:16;99672.98;;;11.37;65.09
76519;BME280;67029;51.054;13.798;2023-11-19T09:37:46;99667.68;;;11.42;65.18
76519;BME280;67029;51.054;13.798;2023-11-19T09:40:16;99659.56;;;11.46;65.13
76519;BME280;67029;51.054;13.798;2023-11-19T09:42:47;99657.72;;;11.48;65.21
76519;BME280;67029;51.054;13.798;2023-11-19T09:45:20;99658.56;;;11.54;65.34
76519;BME280;67029;51.054;13.798;2023-11-19T09:47:51;99660.09;;;11.59;65.55
76519;BME280;67029;51.054;13.798;2023-11-19T09:50:19;99662.62;;;11.65;65.46
76519;BME280;67029;51.054;13.798;2023-11-19T09:52:49;99667.28;;;11.74;65.52
76519;BME280;67029;51.054;13.798;2023-11-19T09:55:19;99654.22;;;11.78;65.75
76519;BME280;67029;51.054;13.798;2023-11-19T09:57:52;99650.31;;;11.87;65.91
76519;BME280;67029;51.054;13.798;2023-11-19T10:00:21;99647.88;;;11.96;66.32
76519;BME280;67029;51.054;13.798;2023-11-19T10:02:50;99653.91;;;12.10;66.32
76519;BME280;67029;51.054;13.798;2023-11-19T10:05:22;99640.34;;;12.16;67.42
76519;BME280;67029;51.054;13.798;2023-11-19T10:07:50;99646.51;;;12.27;67.77
76519;BME280;67029;51.054;13.798;2023-11-19T10:10:20;99634.47;;;12.61;68.18
76519;BME280;67029;51.054;13.798;2023-11-19T10:12:54;99641.18;;;12.81;67.70
76519;BME280;67029;51.054;13.798;2023-11-19T10:15:23;99624.73;;;12.99;67.42
76519;BME280;67029;51.054;13.798;2023-11-19T10:17:52;99639.80;;;13.34;66.89
76519;BME280;67029;51.054;13.798;2023-11-19T10:20:22;99618.98;;;13.67;65.63
76519;BME280;67029;51.054;13.798;2023-11-19T10:22:55;99621.64;;;13.82;64.60
76519;BME280;67029;51.054;13.798;2023-11-19T10:25:26;99618.13;;;13.96;63.82
76519;BME280;67029;51.054;13.798;2023-11-19T10:27:53;99631.89;;;14.05;63.56
76519;BME280;67029;51.054;13.798;2023-11-19T10:30:27;99625.89;;;14.09;62.93
76519;BME280;67029;51.054;13.798;2023-11-19T10:33:06;99639.52;;;14.10;62.93
76519;BME280;67029;51.054;13.798;2023-11-19T10:35:23;99621.73;;;14.11;62.95
76519;BME280;67029;51.054;13.798;2023-11-19T10:37:53;99630.41;;;14.15;63.00
76519;BME280;67029;51.054;13.798;2023-11-19T10:40:37;99626.20;;;14.22;62.32
76519;BME280;67029;51.054;13.798;2023-11-19T10:43:02;99615.20;;;14.24;62.58
76519;BME280;67029;51.054;13.798;2023-11-19T10:45:25;99614.27;;;14.30;62.57
76519;BME280;67029;51.054;13.798;2023-11-19T10:47:55;99611.10;;;14.32;62.44
76519;BME280;67029;51.054;13.798;2023-11-19T10:50:29;99614.70;;;14.51;61.92
76519;BME280;67029;51.054;13.798;2023-11-19T10:52:57;99605.12;;;14.63;61.87
76519;BME280;67029;51.054;13.798;2023-11-19T10:55:28;99621.53;;;14.78;61.51
76519;BME280;67029;51.054;13.798;2023-11-19T10:58:05;99617.02;;;14.83;61.31
76519;BME280;67029;51.054;13.798;2023-11-19T11:00:42;99619.65;;;14.89;61.04
76519;BME280;67029;51.054;13.798;2023-11-19T11:03:01;99628.46;;;14.94;61.15
76519;BME280;67029;51.054;13.798;2023-11-19T11:05:32;99622.77;;;15.02;60.73
76519;BME280;67029;51.054;13.798;2023-11-19T11:08:01;99620.47;;;15.04;60.42
76519;BME280;67029;51.054;13.798;2023-11-19T11:10:32;99619.06;;;15.13;60.52
76519;BME280;67029;51.054;13.798;2023-11-19T11:13:03;99613.80;;;15.20;59.97
76519;BME280;67029;51.054;13.798;2023-11-19T11:15:32;99610.90;;;15.24;59.71
76519;BME280;67029;51.054;13.798;2023-11-19T11:18:02;99619.73;;;15.23;60.02
76519;BME280;67029;51.054;13.798;2023-11-19T11:20:33;99613.07;;;15.29;59.59
76519;BME280;67029;51.054;13.798;2023-11-19T11:25:48;99608.83;;;15.25;60.01
76519;BME280;67029;51.054;13.798;2023-11-19T11:38:08;99627.65;;;15.31;59.50
76519;BME280;67029;51.054;13.798;2023-11-19T11:40:35;99618.82;;;15.28;59.23
76519;BME280;67029;51.054;13.798;2023-11-19T11:45:38;99617.50;;;15.30;58.81
76519;BME280;67029;51.054;13.798;2023-11-19T11:48:09;99618.96;;;15.29;59.12
76519;BME280;67029;51.054;13.798;2023-11-19T11:50:48;99620.71;;;15.32;58.52
76519;BME280;67029;51.054;13.798;2023-11-19T11:53:16;99618.66;;;15.36;58.29
76519;BME280;67029;51.054;13.798;2023-11-19T11:55:53;99619.00;;;15.56;58.56
76519;BME280;67029;51.054;13.798;2023-11-19T11:58:10;99626.91;;;15.90;58.85
76519;BME280;67029;51.054;13.798;2023-11-19T12:00:41;99614.95;;;16.41;57.53
76519;BME280;67029;51.054;13.798;2023-11-19T12:03:11;99614.47;;;17.09;55.67
76519;BME280;67029;51.054;13.798;2023-11-19T12:05:43;99610.58;;;17.67;54.12
76519;BME280;67029;51.054;13.798;2023-11-19T12:08:12;99616.62;;;18.33;54.51
76519;BME280;67029;51.054;13.798;2023-11-19T12:10:49;99620.23;;;18.85;53.35
76519;BME280;67029;51.054;13.798;2023-11-19T12:13:12;99606.02;;;19.25;51.02
76519;BME280;67029;51.054;13.798;2023-11-19T12:18:18;99596.52;;;19.54;47.68
76519;BME280;67029;51.054;13.798;2023-11-19T12:20:43;99596.30;;;19.37;47.00
76519;BME280;67029;51.054;13.798;2023-11-19T12:23:14;99591.57;;;19.07;47.75
76519;BME280;67029;51.054;13.798;2023-11-19T12:25:43;99577.52;;;18.94;48.25
76519;BME280;67029;51.054;13.798;2023-11-19T12:28:17;99576.27;;;18.92;49.21
76519;BME280;67029;51.054;13.798;2023-11-19T12:30:44;99579.12;;;19.05;49.11
76519;BME280;67029;51.054;13.798;2023-11-19T12:33:14;99578.91;;;19.29;48.99
76519;BME280;67029;51.054;13.798;2023-11-19T12:35:45;99572.70;;;19.65;48.79
76519;BME280;67029;51.054;13.798;2023-11-19T12:38:24;99575.16;;;20.08;48.11
76519;BME280;67029;51.054;13.798;2023-11-19T12:40:44;99572.30;;;20.53;48.14
76519;BME280;67029;51.054;13.798;2023-11-19T12:43:23;99569.39;;;21.04;47.07
76519;BME280;67029;51.054;13.798;2023-11-19T12:45:48;99554.25;;;21.49;45.81
76519;BME280;67029;51.054;13.798;2023-11-19T12:48:16;99565.02;;;22.05;46.49
76519;BME280;67029;51.054;13.798;2023-11-19T12:50:58;99561.45;;;22.60;44.76
76519;BME280;67029;51.054;13.798;2023-11-19T12:53:16;99553.85;;;22.86;42.05
76519;BME280;67029;51.054;13.798;2023-11-19T12:55:46;99555.97;;;23.20;41.23
76519;BME280;67029;51.054;13.798;2023-11-19T12:58:33;99553.18;;;23.34;40.71
76519;BME280;67029;51.054;13.798;2023-11-19T13:00:47;99546.61;;;23.53;39.61
76519;BME280;67029;51.054;13.798;2023-11-19T13:03:34;99549.02;;;23.65;39.35
76519;BME280;67029;51.054;13.798;2023-11-19T13:05:47;99552.95;;;23.79;39.32
76519;BME280;67029;51.054;13.798;2023-11-19T13:08:17;99554.61;;;23.79;40.03
76519;BME280;67029;51.054;13.798;2023-11-19T13:10:52;99547.84;;;23.60;39.02
76519;BME280;67029;51.054;13.798;2023-11-19T13:13:18;99544.94;;;23.30;39.92
76519;BME280;67029;51.054;13.798;2023-11-19T13:15:48;99548.66;;;23.19;39.64
76519;BME280;67029;51.054;13.798;2023-11-19T13:18:18;99551.38;;;22.84;40.40
76519;BME280;67029;51.054;13.798;2023-11-19T13:20:48;99552.33;;;22.75;40.06
76519;BME280;67029;51.054;13.798;2023-11-19T13:23:18;99545.89;;;22.80;41.13
76519;BME280;67029;51.054;13.798;2023-11-19T13:25:48;99546.20;;;22.82;41.97
76519;BME280;67029;51.054;13.798;2023-11-19T13:28:18;99545.30;;;22.85;41.44